createdAt,value
2017-06-04T20:27:35.159Z,51.80
2017-06-04T20:30:04.201Z,51.20
2017-06-04T20:32:33.014Z,75.20
2017-06-04T20:35:01.929Z,46.50
2017-06-04T20:37:30.725Z,48.10
2017-06-04T20:39:59.506Z,49.40
2017-06-04T20:42:28.337Z,50.10
2017-06-04T20:44:57.133Z,50.40
2017-06-04T20:47:25.920Z,48.10
2017-06-04T20:49:54.166Z,49.00
2017-06-04T20:52:22.950Z,49.40
2017-06-04T20:54:51.975Z,49.40
2017-06-04T21:00:30.403Z,67.80
2017-06-04T21:02:57.900Z,49.80
2017-06-04T21:05:25.396Z,49.70
2017-06-04T21:07:52.909Z,50.50
2017-06-04T21:10:20.413Z,50.20
2017-06-04T21:13:40.510Z,50.10
2017-06-04T21:16:08.034Z,50.30
2017-06-04T21:18:35.548Z,50.80
2017-06-04T21:21:03.093Z,51.70
2017-06-04T21:53:09.221Z,43.30
2017-06-04T21:56:45.773Z,64.80
2017-06-04T21:59:13.300Z,64.40
2017-06-04T22:01:42.238Z,64.50
2017-06-04T22:04:09.745Z,64.60
2017-06-04T22:06:38.052Z,64.50
2017-06-04T22:09:05.595Z,64.50
2017-06-04T22:11:33.089Z,64.60
2017-06-04T22:14:00.619Z,64.60
2017-06-04T22:16:28.149Z,64.60
2017-06-04T22:18:55.662Z,64.60
2017-06-04T22:21:23.164Z,64.50
2017-06-04T22:23:50.702Z,65.70
2017-06-04T22:26:18.217Z,64.50
2017-06-04T22:28:51.971Z,64.50
2017-06-04T22:31:19.489Z,64.80
2017-06-04T22:33:48.513Z,64.70
2017-06-04T22:36:19.683Z,64.60
2017-06-04T22:38:47.200Z,65.00
2017-06-04T22:41:14.719Z,64.60
2017-06-04T22:43:43.003Z,64.30
2017-06-04T22:46:10.593Z,64.60
2017-06-04T22:48:38.086Z,64.30
2017-06-04T22:51:05.621Z,64.00
2017-06-04T22:53:33.138Z,64.30
2017-06-04T22:56:00.644Z,63.30
2017-06-04T22:58:28.157Z,63.60
2017-06-04T23:00:56.455Z,63.50
2017-06-04T23:03:23.982Z,63.70
2017-06-04T23:05:51.490Z,63.60
2017-06-04T23:08:18.996Z,63.70
2017-06-04T23:10:46.505Z,63.40
2017-06-04T23:13:14.005Z,63.30
2017-06-04T23:15:41.547Z,63.30
2017-06-04T23:18:09.061Z,63.10
2017-06-04T23:20:37.328Z,62.80
2017-06-04T23:23:05.614Z,62.90
2017-06-04T23:25:33.161Z,62.90
2017-06-04T23:28:00.688Z,63.00
2017-06-04T23:30:28.204Z,63.10
2017-06-04T23:32:55.721Z,63.00
2017-06-04T23:35:23.233Z,63.10
2017-06-04T23:37:50.747Z,63.60
2017-06-04T23:40:18.271Z,63.90
2017-06-04T23:42:45.788Z,64.30
2017-06-04T23:45:13.301Z,64.40
2017-06-04T23:47:40.821Z,64.30
2017-06-04T23:50:08.329Z,64.30
2017-06-04T23:52:36.054Z,64.40
2017-06-04T23:55:03.566Z,64.20
2017-06-04T23:57:31.082Z,64.30
2017-06-04T23:59:58.597Z,64.60
